الصفحة الرئيسية
METAR-TAF:

METAR-TAF

مطار :

مطار توسان الدولي

توسان, أريزونا, الولايات المتحدة

دائرة عرض: 32-07-53N, خط طول: 110-57-19W, ارتفاع: 805 متر

مراقبة الطقس الحالي

تاريخ ووقت الإصدار 39 دقيقة قبل الساعة 20:55UTC
درجة الحرارة 26°درجة مئوية
الرطوبة 17%
ضغط 1016 hPa
الرؤية: 16.1 كم
سماء صافية

METAR: KTUS 182055Z 10SM CLR 26/M01 A3001 RMK AO2 T02561011

زمن: 14:34 (21:34 UTC)

توقعات

تاريخ ووقت الإصدار 4ساعات و 14 دقيقة قبل الساعة 17:20UTC
التوقعات صالحة من18 الساعة 18 UTC إلى 19 الساعة 18 UTC
ريح 7 عقدة من الجنوب الشرقي
الرؤية: 10 كم
سماء صافية
من 18 الساعة 2100 UTC
ريح 10 عقدة من الشرق
الرؤية: 10 كم
غيوم متفرقة على ارتفاع 10000 قدم
من 19 الساعة 0200 UTC
ريح 7 عقدة من الشرق/الشمال الشرقي
الرؤية: 10 كم
سماء صافية
من 19 الساعة 0600 UTC
ريح 8 عقدة من الجنوب الشرقي
الرؤية: 10 كم
سماء صافية

TAF: KTUS 181720Z 1818/1918 13007KT P6SM SKC FM182100 09010KT P6SM SCT100 FM190200 07007KT P6SM SKC FM190600 13008KT P6SM SKC

أرصاد الطقس والتوقعات من أكثر من 4000 مطار (تقارير الطقس للمطار METAR والتنبؤ بالطقس بالمطارTAF).

المحطات المتاحة هي النقط الصفراء والحمراء على الخريطة.

حرك المؤشر فوق النقطة لمعرفة اسم المحطة.

ثم انقر لمعرفة أرصاد وتوقعات الطقس.

لتغيير الخارطة: اضغط على الأزرار الخضراء مع رمز الصليب الأسود للتكبير. على الزر الأخضر مع شرطة للتصغير، أو على الأسهم الخضراء للخرائط المجاورة.


METAR-TAF: